createdAt,value
2022-11-10T00:03:13.414Z,95639.09
2022-11-10T00:07:20.180Z,95645.78
2022-11-10T00:11:06.390Z,95645.59
2022-11-10T00:15:08.086Z,95648.41
2022-11-10T00:18:51.288Z,95650.84
2022-11-10T00:22:40.827Z,95652.47
2022-11-10T00:26:23.656Z,95654.69
2022-11-10T00:30:08.741Z,95658.72
2022-11-10T00:33:51.411Z,95658.09
2022-11-10T00:37:34.222Z,95660.72
2022-11-10T00:41:19.379Z,95667.41
2022-11-10T00:45:02.658Z,95678.75
2022-11-10T00:48:47.183Z,95682.41
2022-11-10T00:52:30.143Z,95687.47
2022-11-10T00:56:14.040Z,95696.94
2022-11-10T00:59:57.043Z,95696.53
2022-11-10T01:03:40.290Z,95709.47
2022-11-10T01:07:48.578Z,95702.59
2022-11-10T01:11:31.864Z,95709.47
2022-11-10T01:15:14.536Z,95706.84
2022-11-10T01:18:58.660Z,95705.44
2022-11-10T01:22:58.145Z,95709.09
2022-11-10T01:26:40.781Z,95709.50
2022-11-10T01:30:23.441Z,95711.31
2022-11-10T01:34:06.380Z,95715.56
2022-11-10T01:38:08.311Z,95717.38
2022-11-10T01:41:51.082Z,95716.75
2022-11-10T01:45:49.012Z,95706.22
2022-11-10T01:49:33.698Z,95711.69
2022-11-10T01:53:22.852Z,95723.84
2022-11-10T01:57:08.260Z,95725.47
2022-11-10T02:00:51.005Z,95730.53
2022-11-10T02:04:34.295Z,95729.72
2022-11-10T02:08:23.200Z,95730.53
2022-11-10T02:12:06.894Z,95733.78
2022-11-10T02:15:49.594Z,95730.53
2022-11-10T02:19:41.116Z,95723.63
2022-11-10T02:23:49.912Z,95726.25
2022-11-10T02:27:32.788Z,95725.25
2022-11-10T02:31:15.958Z,95735.41
2022-11-10T02:34:58.799Z,95734.16
2022-11-10T02:38:52.509Z,95734.53
2022-11-10T02:42:35.243Z,95745.44
2022-11-10T02:46:17.892Z,95745.44
2022-11-10T02:50:00.557Z,95756.34
2022-11-10T02:53:53.362Z,95762.81
2022-11-10T02:57:36.038Z,95786.28
2022-11-10T03:01:18.744Z,95800.03
2022-11-10T03:05:01.563Z,95799.84
2022-11-10T03:08:44.315Z,95804.97
2022-11-10T03:12:28.485Z,95821.13
2022-11-10T03:16:11.114Z,95825.63
2022-11-10T03:19:53.795Z,95835.44
2022-11-10T03:23:39.609Z,95833.72
2022-11-10T03:27:22.413Z,95855.97
2022-11-10T03:31:06.908Z,95870.09
2022-11-10T03:34:49.562Z,95867.03
2022-11-10T03:38:32.293Z,95870.19
2022-11-10T03:42:14.970Z,95874.56
2022-11-10T03:45:57.622Z,95881.44
2022-11-10T03:49:41.651Z,95879.81
2022-11-10T03:53:24.593Z,95885.06
2022-11-10T03:57:07.481Z,95882.69
2022-11-10T04:00:50.160Z,95894.66
2022-11-10T04:04:50.207Z,95889.41
2022-11-10T04:08:51.998Z,95904.59
2022-11-10T04:12:52.409Z,95896.97
2022-11-10T04:16:35.165Z,95898.63
2022-11-10T04:20:18.030Z,95898.97
2022-11-10T04:24:02.006Z,95900.59
2022-11-10T04:27:47.598Z,95898.25
2022-11-10T04:31:31.622Z,95908.38
2022-11-10T04:35:14.255Z,95913.63
2022-11-10T04:38:57.224Z,95920.50
2022-11-10T04:42:42.026Z,95943.78
2022-11-10T04:46:26.578Z,95958.19
2022-11-10T04:50:09.916Z,95961.81
2022-11-10T04:53:52.744Z,95957.38
2022-11-10T04:57:35.507Z,95962.19
2022-11-10T05:01:21.421Z,95948.78
2022-11-10T05:05:04.170Z,95956.03
2022-11-10T05:08:47.375Z,95958.66
2022-11-10T05:12:30.075Z,95961.00
2022-11-10T05:16:13.181Z,95967.91
2022-11-10T05:19:57.199Z,95973.16
2022-11-10T05:23:40.255Z,95977.41
2022-11-10T05:27:23.210Z,95986.91
2022-11-10T05:31:06.188Z,95979.03
2022-11-10T05:34:48.892Z,95998.06
2022-11-10T05:38:32.980Z,95996.34
2022-11-10T05:42:15.667Z,96011.28
2022-11-10T05:45:58.516Z,96023.41
2022-11-10T05:49:41.202Z,96020.97
2022-11-10T05:53:24.212Z,96029.03
2022-11-10T05:57:08.513Z,96037.72
2022-11-10T06:00:51.195Z,96035.09
2022-11-10T06:04:33.825Z,96059.34
2022-11-10T06:08:17.759Z,96053.28
2022-11-10T06:12:00.390Z,96061.81
2022-11-10T06:15:50.055Z,96064.06
2022-11-10T06:19:33.109Z,96067.97
2022-11-10T06:23:16.209Z,96082.09
2022-11-10T06:26:58.888Z,96110.91
2022-11-10T06:30:41.583Z,96119.78
2022-11-10T06:34:25.581Z,96129.66
2022-11-10T06:38:10.946Z,96130.66
2022-11-10T06:41:53.599Z,96135.81
2022-11-10T06:45:36.279Z,96135.09
2022-11-10T06:49:20.176Z,96133.91
2022-11-10T06:53:04.485Z,96143.97
2022-11-10T06:56:47.127Z,96153.66
2022-11-10T07:00:30.525Z,96147.22
2022-11-10T07:04:20.534Z,96161.53
2022-11-10T07:08:06.063Z,96173.38
2022-11-10T07:11:48.816Z,96181.34
2022-11-10T07:15:34.684Z,96182.16
2022-11-10T07:19:17.422Z,96194.34
2022-11-10T07:23:01.124Z,96198.16
2022-11-10T07:26:45.658Z,96213.91
2022-11-10T07:30:29.130Z,96213.50
2022-11-10T07:34:11.861Z,96232.16
2022-11-10T07:37:54.615Z,96235.09
2022-11-10T07:41:37.346Z,96243.53
2022-11-10T07:45:22.939Z,96237.31
2022-11-10T07:49:05.743Z,96244.97
2022-11-10T07:52:48.744Z,96242.72
2022-11-10T07:56:31.386Z,96250.88
2022-11-10T08:00:15.580Z,96253.78
2022-11-10T08:03:59.551Z,96250.13
2022-11-10T08:07:42.318Z,96248.41
2022-11-10T08:11:25.075Z,96254.31
2022-11-10T08:15:08.484Z,96258.41
2022-11-10T08:18:51.179Z,96267.47
2022-11-10T08:22:35.355Z,96263.09
2022-11-10T08:26:18.046Z,96263.78
2022-11-10T08:30:00.707Z,96279.84
2022-11-10T08:33:43.354Z,96282.38
2022-11-10T08:37:27.808Z,96285.56
2022-11-10T08:41:14.202Z,96288.19
2022-11-10T08:44:56.831Z,96278.56
2022-11-10T08:48:39.511Z,96286.19
2022-11-10T08:52:22.177Z,96295.81
2022-11-10T08:56:05.027Z,96302.28
2022-11-10T08:59:49.049Z,96308.97
2022-11-10T09:03:34.635Z,96330.25
2022-11-10T09:07:17.321Z,96331.06
2022-11-10T09:11:03.128Z,96321.28
2022-11-10T09:14:45.853Z,96340.19
2022-11-10T09:18:30.121Z,96345.31
2022-11-10T09:22:12.891Z,96361.53
2022-11-10T09:25:56.842Z,96355.88
2022-11-10T09:29:39.534Z,96368.31
2022-11-10T09:33:22.636Z,96374.75
2022-11-10T09:37:06.835Z,96370.72
2022-11-10T09:40:57.056Z,96375.19
2022-11-10T09:44:42.951Z,96382.16
2022-11-10T09:48:28.692Z,96373.34
2022-11-10T09:52:13.819Z,96380.25
2022-11-10T09:55:59.757Z,96383.50
2022-11-10T09:59:44.068Z,96375.88
2022-11-10T10:03:31.531Z,96391.31
2022-11-10T10:07:17.953Z,96387.78
2022-11-10T10:11:08.322Z,96388.22
2022-11-10T10:15:11.808Z,96387.47
2022-11-10T10:19:00.410Z,96407.16
2022-11-10T10:22:54.822Z,96404.25
2022-11-10T10:26:41.084Z,96415.31
2022-11-10T10:30:24.007Z,96415.94
2022-11-10T10:34:12.652Z,96415.34
2022-11-10T10:37:58.489Z,96399.09
2022-11-10T10:41:43.392Z,96393.63
2022-11-10T10:45:29.024Z,96399.06
2022-11-10T10:49:33.734Z,96412.91
2022-11-10T10:53:19.208Z,96415.09
2022-11-10T10:57:05.613Z,96411.91
2022-11-10T11:00:49.790Z,96419.78
2022-11-10T11:04:35.391Z,96418.50
2022-11-10T11:08:20.013Z,96414.75
2022-11-10T11:12:06.035Z,96423.34
2022-11-10T11:15:58.177Z,96426.09
2022-11-10T11:19:41.330Z,96425.47
2022-11-10T11:23:37.325Z,96435.84
2022-11-10T11:27:24.912Z,96443.75
2022-11-10T11:31:11.667Z,96448.53
2022-11-10T11:35:01.612Z,96445.56
2022-11-10T11:38:54.076Z,96449.34
2022-11-10T11:42:48.074Z,96439.78
2022-11-10T11:46:37.599Z,96436.78
2022-11-10T11:50:28.781Z,96431.63
2022-11-10T11:54:28.123Z,96430.00
2022-11-10T11:58:26.409Z,96423.97
2022-11-10T12:02:47.560Z,96423.72
2022-11-10T12:06:42.066Z,96409.72
2022-11-10T12:10:39.239Z,96412.81
2022-11-10T12:14:30.101Z,96407.47
2022-11-10T12:18:22.611Z,96412.72
2022-11-10T12:22:11.419Z,96399.75
2022-11-10T12:26:02.739Z,96413.41
2022-11-10T12:29:48.993Z,96413.19
2022-11-10T12:33:36.623Z,96416.41
2022-11-10T12:37:27.685Z,96423.78
2022-11-10T12:41:13.734Z,96408.72
2022-11-10T12:45:01.700Z,96404.69
2022-11-10T12:48:51.614Z,96395.97
2022-11-10T12:52:38.444Z,96396.19
2022-11-10T12:56:26.607Z,96406.38
2022-11-10T13:00:28.113Z,96403.09
2022-11-10T13:04:14.974Z,96410.44
2022-11-10T13:08:13.880Z,96400.66
2022-11-10T13:12:16.629Z,96403.09
2022-11-10T13:15:59.735Z,96410.84
2022-11-10T13:19:52.900Z,96413.63
2022-11-10T13:24:19.214Z,96414.97
2022-11-10T13:28:03.366Z,96428.53
2022-11-10T13:31:56.679Z,96422.06
2022-11-10T13:35:55.166Z,96430.28
2022-11-10T13:39:38.449Z,96425.31
2022-11-10T13:43:26.507Z,96424.28
2022-11-10T13:47:45.893Z,96414.50
2022-11-10T13:51:40.421Z,96408.41
2022-11-10T13:55:35.873Z,96411.03
2022-11-10T13:59:22.527Z,96412.06
2022-11-10T14:03:06.538Z,96407.94
2022-11-10T14:06:50.668Z,96400.81
2022-11-10T14:10:40.863Z,96422.16
2022-11-10T14:14:28.570Z,96410.31
2022-11-10T14:18:19.283Z,96425.38
2022-11-10T14:22:04.657Z,96411.81
2022-11-10T14:25:48.011Z,96428.91
2022-11-10T14:29:34.528Z,96431.06
2022-11-10T14:33:17.254Z,96436.47
2022-11-10T14:37:02.710Z,96437.84
2022-11-10T14:40:45.427Z,96444.19
2022-11-10T14:44:29.623Z,96452.59
2022-11-10T14:48:19.226Z,96449.22
2022-11-10T14:52:02.119Z,96452.22
2022-11-10T14:55:46.310Z,96456.66
2022-11-10T14:59:31.734Z,96452.00
2022-11-10T15:03:20.044Z,96455.31
2022-11-10T15:07:02.922Z,96451.69
2022-11-10T15:10:47.622Z,96471.78
2022-11-10T15:14:33.010Z,96460.78
2022-11-10T15:18:29.160Z,96456.75
2022-11-10T15:22:17.983Z,96456.69
2022-11-10T15:26:00.656Z,96447.34
2022-11-10T15:29:43.345Z,96451.59
2022-11-10T15:33:29.191Z,96450.97
2022-11-10T15:37:30.757Z,96444.94
2022-11-10T15:41:16.291Z,96451.78
2022-11-10T15:44:59.437Z,96454.88
2022-11-10T15:48:44.844Z,96466.84
2022-11-10T15:52:27.554Z,96471.09
2022-11-10T15:56:14.370Z,96473.13
2022-11-10T15:59:57.016Z,96482.03
2022-11-10T16:03:44.493Z,96490.09
2022-11-10T16:07:27.293Z,96488.19
2022-11-10T16:11:15.442Z,96491.94
2022-11-10T16:14:58.265Z,96503.28
2022-11-10T16:18:44.081Z,96513.72
2022-11-10T16:22:26.830Z,96526.16
2022-11-10T16:26:11.777Z,96526.03
2022-11-10T16:29:54.902Z,96534.81
2022-11-10T16:33:37.568Z,96548.50
2022-11-10T16:37:21.807Z,96545.97
2022-11-10T16:41:05.263Z,96545.06
2022-11-10T16:44:48.016Z,96552.28
2022-11-10T16:48:32.831Z,96560.28
2022-11-10T16:52:16.665Z,96578.00
2022-11-10T16:56:00.806Z,96584.00
2022-11-10T16:59:45.569Z,96595.91
2022-11-10T17:03:31.924Z,96597.66
2022-11-10T17:07:15.534Z,96604.91
2022-11-10T17:10:58.411Z,96624.38
2022-11-10T17:14:42.526Z,96616.53
2022-11-10T17:18:25.726Z,96619.91
2022-11-10T17:22:10.822Z,96631.75
2022-11-10T17:25:54.548Z,96625.84
2022-11-10T17:29:37.243Z,96628.50
2022-11-10T17:33:21.616Z,96628.03
2022-11-10T17:37:04.891Z,96630.84
2022-11-10T17:40:48.306Z,96640.09
2022-11-10T17:44:31.425Z,96633.06
2022-11-10T17:48:14.118Z,96635.94
2022-11-10T17:51:58.248Z,96636.47
2022-11-10T17:55:41.010Z,96638.69
2022-11-10T17:59:23.779Z,96640.09
2022-11-10T18:03:08.592Z,96648.94
2022-11-10T18:06:51.336Z,96654.75
2022-11-10T18:10:35.370Z,96658.75
2022-11-10T18:14:18.036Z,96654.53
2022-11-10T18:18:01.269Z,96666.84
2022-11-10T18:21:44.098Z,96685.44
2022-11-10T18:25:26.815Z,96695.66
2022-11-10T18:29:11.055Z,96694.03
2022-11-10T18:32:53.728Z,96697.00
2022-11-10T18:36:36.366Z,96697.34
2022-11-10T18:40:19.082Z,96698.66
2022-11-10T18:44:01.798Z,96691.28
2022-11-10T18:47:45.845Z,96687.50
2022-11-10T18:51:28.587Z,96680.94
2022-11-10T18:55:11.640Z,96665.84
2022-11-10T18:58:56.972Z,96653.38
2022-11-10T19:02:39.908Z,96654.34
2022-11-10T19:06:24.447Z,96662.25
2022-11-10T19:10:09.016Z,96654.41
2022-11-10T19:13:54.740Z,96668.34
2022-11-10T19:17:39.195Z,96675.09
2022-11-10T19:21:27.014Z,96670.00
2022-11-10T19:25:09.958Z,96680.34
2022-11-10T19:28:56.430Z,96688.22
2022-11-10T19:32:39.803Z,96685.91
2022-11-10T19:36:26.733Z,96684.28
2022-11-10T19:40:10.716Z,96687.25
2022-11-10T19:43:56.713Z,96681.97
2022-11-10T19:47:39.354Z,96679.03
2022-11-10T19:51:23.183Z,96681.31
2022-11-10T19:55:07.862Z,96684.94
2022-11-10T19:58:58.743Z,96671.47
2022-11-10T20:02:45.403Z,96675.41
2022-11-10T20:06:28.984Z,96674.09
2022-11-10T20:10:13.262Z,96689.38
2022-11-10T20:14:16.774Z,96691.84
2022-11-10T20:17:59.411Z,96698.22
2022-11-10T20:21:42.339Z,96718.09
2022-11-10T20:25:26.371Z,96716.09
2022-11-10T20:29:21.226Z,96709.50
2022-11-10T20:33:05.797Z,96705.56
2022-11-10T20:36:48.611Z,96701.44
2022-11-10T20:40:48.383Z,96699.31
2022-11-10T20:44:31.065Z,96691.44
2022-11-10T20:48:13.909Z,96699.28
2022-11-10T20:51:59.672Z,96694.03
2022-11-10T20:55:53.451Z,96695.69
2022-11-10T20:59:36.688Z,96711.41
2022-11-10T21:03:19.507Z,96719.91
2022-11-10T21:07:02.280Z,96730.38
2022-11-10T21:10:52.748Z,96725.38
2022-11-10T21:14:45.275Z,96723.03
2022-11-10T21:18:29.771Z,96723.31
2022-11-10T21:22:12.483Z,96726.56
2022-11-10T21:25:57.737Z,96732.63
2022-11-10T21:30:05.523Z,96730.97
2022-11-10T21:33:50.509Z,96716.34
2022-11-10T21:37:34.606Z,96716.16
2022-11-10T21:41:19.062Z,96721.19
2022-11-10T21:45:01.762Z,96724.72
2022-11-10T21:48:44.571Z,96723.09
2022-11-10T21:52:27.252Z,96724.34
2022-11-10T21:56:11.417Z,96718.13
2022-11-10T22:00:06.378Z,96726.97
2022-11-10T22:03:49.683Z,96713.34
2022-11-10T22:07:32.314Z,96724.97
2022-11-10T22:11:33.697Z,96731.13
2022-11-10T22:15:35.204Z,96727.41
2022-11-10T22:19:18.314Z,96726.66
2022-11-10T22:23:01.075Z,96729.97
2022-11-10T22:26:43.715Z,96742.06
2022-11-10T22:30:28.325Z,96730.25
2022-11-10T22:34:11.897Z,96726.00
2022-11-10T22:37:57.350Z,96728.91
2022-11-10T22:42:02.954Z,96728.25
2022-11-10T22:45:47.186Z,96726.75
2022-11-10T22:49:29.829Z,96744.53
2022-11-10T22:53:15.426Z,96733.13
2022-11-10T22:56:58.097Z,96738.91
2022-11-10T23:00:41.401Z,96737.88
2022-11-10T23:04:25.408Z,96730.31
2022-11-10T23:08:08.155Z,96721.44
2022-11-10T23:11:50.790Z,96716.50
2022-11-10T23:15:40.378Z,96715.97
2022-11-10T23:19:22.999Z,96716.13
2022-11-10T23:23:07.008Z,96719.03
2022-11-10T23:26:49.721Z,96726.50
2022-11-10T23:30:51.961Z,96730.91
2022-11-10T23:34:34.633Z,96721.47
2022-11-10T23:38:18.924Z,96721.66
2022-11-10T23:42:01.599Z,96715.06
2022-11-10T23:46:07.684Z,96717.84
2022-11-10T23:49:50.568Z,96705.88
2022-11-10T23:53:34.597Z,96716.34
2022-11-10T23:57:17.211Z,96711.78
